createdAt,value
2022-12-24T00:02:04.857Z,982.7
2022-12-24T00:07:23.890Z,982.8
2022-12-24T00:12:42.816Z,982.8
2022-12-24T00:18:02.146Z,982.7
2022-12-24T00:23:20.607Z,982.8
2022-12-24T00:28:40.059Z,982.8
2022-12-24T00:33:59.274Z,982.9
2022-12-24T00:39:18.492Z,982.8
2022-12-24T00:44:38.050Z,982.9
2022-12-24T00:49:57.763Z,983
2022-12-24T00:55:17.310Z,983.1
2022-12-24T01:00:36.196Z,983.2
2022-12-24T01:05:55.128Z,983.3
2022-12-24T01:11:14.262Z,983.5
2022-12-24T01:16:33.402Z,983.6
2022-12-24T01:21:52.818Z,983.6
2022-12-24T01:27:12.135Z,983.6
2022-12-24T01:32:30.952Z,983.9
2022-12-24T01:37:50.086Z,983.8
2022-12-24T01:43:09.200Z,983.7
2022-12-24T01:48:28.735Z,983.8
2022-12-24T01:53:48.013Z,983.9
2022-12-24T01:59:07.159Z,984
2022-12-24T02:04:26.715Z,984
2022-12-24T02:09:46.392Z,984
2022-12-24T02:15:05.855Z,984.1
2022-12-24T02:20:25.054Z,984.3
2022-12-24T02:25:44.379Z,984.4
2022-12-24T02:31:03.160Z,984.5
2022-12-24T02:36:22.681Z,984.6
2022-12-24T02:41:42.259Z,984.7
2022-12-24T02:47:01.660Z,984.7
2022-12-24T02:52:20.619Z,984.8
2022-12-24T02:57:39.859Z,984.8
2022-12-24T03:02:59.310Z,984.8
2022-12-24T03:08:18.300Z,984.8
2022-12-24T03:13:37.885Z,984.8
2022-12-24T03:18:57.236Z,984.9
2022-12-24T03:24:16.025Z,984.9
2022-12-24T03:29:35.184Z,985.1
2022-12-24T03:34:54.342Z,985.1
2022-12-24T03:40:13.619Z,985.2
2022-12-24T03:45:33.199Z,985.3
2022-12-24T03:50:51.942Z,985.4
2022-12-24T03:56:11.329Z,985.5
2022-12-24T04:01:30.272Z,985.6
2022-12-24T04:07:14.077Z,985.6
2022-12-24T04:12:33.716Z,985.8
2022-12-24T04:17:54.076Z,985.6
2022-12-24T04:23:13.704Z,985.7
2022-12-24T04:28:32.369Z,985.6
2022-12-24T04:33:51.416Z,985.7
2022-12-24T04:39:11.167Z,985.7
2022-12-24T04:44:30.692Z,985.7
2022-12-24T04:49:49.702Z,985.9
2022-12-24T04:55:08.616Z,985.9
2022-12-24T05:00:27.823Z,985.8
2022-12-24T05:05:47.291Z,985.9
2022-12-24T05:11:06.744Z,986
2022-12-24T05:16:25.621Z,986.1
2022-12-24T05:21:44.524Z,986
2022-12-24T05:27:04.051Z,986.1
2022-12-24T05:32:22.779Z,986.1
2022-12-24T05:37:42.392Z,986.1
2022-12-24T05:43:01.563Z,986
2022-12-24T05:48:20.806Z,986.1
2022-12-24T05:53:40.071Z,986.2
2022-12-24T05:58:59.267Z,986.1
2022-12-24T06:04:21.724Z,986.1
2022-12-24T06:09:37.687Z,986.4
2022-12-24T06:14:57.302Z,986.4
2022-12-24T06:20:16.419Z,986.4
2022-12-24T06:25:35.680Z,986.5
2022-12-24T06:31:00.443Z,986.3
2022-12-24T06:36:17.411Z,986.4
2022-12-24T06:41:33.965Z,986.5
2022-12-24T06:46:53.497Z,986.5
2022-12-24T06:52:12.971Z,986.6
2022-12-24T06:57:32.474Z,986.6
2022-12-24T07:02:50.902Z,986.8
2022-12-24T07:08:10.680Z,986.8
2022-12-24T07:13:29.914Z,987
2022-12-24T07:18:48.756Z,987.1
2022-12-24T07:24:07.838Z,987.2
2022-12-24T07:29:26.982Z,987.2
2022-12-24T07:34:45.840Z,987.2
2022-12-24T07:40:04.690Z,987.3
2022-12-24T07:45:23.595Z,987.3
2022-12-24T07:50:42.616Z,987.3
2022-12-24T07:56:04.211Z,987.4
2022-12-24T08:01:21.400Z,987.5
2022-12-24T08:06:40.359Z,987.6
2022-12-24T08:12:08.457Z,987.5
2022-12-24T08:17:19.010Z,987.6
2022-12-24T08:22:38.932Z,987.6
2022-12-24T08:27:58.920Z,987.6
2022-12-24T08:33:17.915Z,987.7
2022-12-24T08:38:37.127Z,987.8
2022-12-24T08:43:55.885Z,988
2022-12-24T08:49:15.370Z,988
2022-12-24T08:54:34.131Z,988.1
2022-12-24T08:59:53.218Z,988.1
2022-12-24T09:05:12.689Z,988.1
2022-12-24T09:10:31.148Z,988.1
2022-12-24T09:15:50.775Z,988.2
2022-12-24T09:21:10.439Z,988.3
2022-12-24T09:26:29.849Z,988.3
2022-12-24T09:31:49.280Z,988.3
2022-12-24T09:37:08.095Z,988.3
2022-12-24T09:42:27.143Z,988.3
2022-12-24T09:47:46.672Z,988.4
2022-12-24T09:53:05.926Z,988.4
2022-12-24T09:58:24.801Z,988.5
2022-12-24T10:03:43.603Z,988.5
2022-12-24T10:09:02.774Z,988.6
2022-12-24T10:14:21.580Z,988.5
2022-12-24T10:19:40.310Z,988.7
2022-12-24T10:25:00.577Z,988.6
2022-12-24T10:30:19.564Z,988.8
2022-12-24T10:35:38.344Z,988.8
2022-12-24T10:40:57.636Z,988.9
2022-12-24T10:46:16.523Z,988.9
2022-12-24T10:51:35.053Z,988.8
2022-12-24T10:56:54.458Z,988.8
2022-12-24T11:02:13.986Z,988.9
2022-12-24T11:07:32.887Z,988.8
2022-12-24T11:13:06.120Z,988.9
2022-12-24T11:18:11.148Z,989
2022-12-24T11:23:29.975Z,989
2022-12-24T11:28:49.321Z,989
2022-12-24T11:34:08.849Z,989
2022-12-24T11:39:28.001Z,988.9
2022-12-24T11:44:46.883Z,989
2022-12-24T11:50:17.987Z,989.1
2022-12-24T11:55:25.890Z,988.9
2022-12-24T12:00:45.156Z,989
2022-12-24T12:06:04.749Z,988.9
2022-12-24T12:11:23.799Z,988.9
2022-12-24T12:16:42.983Z,988.8
2022-12-24T12:22:01.252Z,988.8
2022-12-24T12:27:20.086Z,988.9
2022-12-24T12:32:39.957Z,988.7
2022-12-24T12:38:00.105Z,988.8
2022-12-24T12:43:19.036Z,988.8
2022-12-24T12:48:38.558Z,988.9
2022-12-24T12:53:57.459Z,988.9
2022-12-24T12:59:15.733Z,988.9
2022-12-24T13:04:35.236Z,989
2022-12-24T13:09:54.379Z,989.1
2022-12-24T13:15:13.551Z,989.2
2022-12-24T13:20:32.434Z,989.2
2022-12-24T13:25:51.229Z,989.3
2022-12-24T13:31:10.426Z,989.2
2022-12-24T13:36:29.465Z,989.3
2022-12-24T13:41:48.364Z,989.4
2022-12-24T13:47:07.830Z,989.3
2022-12-24T13:52:27.466Z,989.4
2022-12-24T13:57:46.379Z,989.3
2022-12-24T14:03:05.969Z,989.4
2022-12-24T14:08:25.035Z,989.4
2022-12-24T14:13:43.992Z,989.4
2022-12-24T14:19:02.733Z,989.5
2022-12-24T14:24:22.787Z,989.5
2022-12-24T14:29:41.200Z,989.5
2022-12-24T14:34:59.933Z,989.5
2022-12-24T14:40:18.732Z,989.6
2022-12-24T14:45:38.228Z,989.6
2022-12-24T14:50:57.123Z,989.6
2022-12-24T14:56:16.591Z,989.7
2022-12-24T15:01:36.848Z,989.7
2022-12-24T15:06:56.371Z,989.7
2022-12-24T15:12:15.386Z,989.4
2022-12-24T15:17:35.006Z,989.4
2022-12-24T15:22:55.126Z,989.5
2022-12-24T15:28:14.160Z,989.6
2022-12-24T15:33:33.485Z,989.7
2022-12-24T15:38:52.467Z,989.9
2022-12-24T15:44:12.101Z,989.9
2022-12-24T15:49:31.201Z,990.1
2022-12-24T15:54:55.629Z,990.1
2022-12-24T16:00:10.195Z,990.2
2022-12-24T16:05:29.193Z,990.2
2022-12-24T16:10:48.919Z,990.3
2022-12-24T16:16:08.300Z,990.4
2022-12-24T16:21:27.830Z,990.3
2022-12-24T16:26:47.534Z,990.4
2022-12-24T16:32:06.281Z,990.4
2022-12-24T16:37:25.581Z,990.4
2022-12-24T16:42:44.691Z,990.3
2022-12-24T16:48:04.210Z,990.3
2022-12-24T16:53:23.862Z,990.4
2022-12-24T16:58:42.814Z,990.5
2022-12-24T17:04:01.860Z,990.6
2022-12-24T17:09:20.761Z,990.6
2022-12-24T17:14:40.011Z,990.6
2022-12-24T17:19:58.845Z,990.5
2022-12-24T17:25:18.425Z,990.6
2022-12-24T17:30:37.733Z,990.6
2022-12-24T17:35:56.512Z,990.7
2022-12-24T17:46:34.611Z,990.7
2022-12-24T17:52:03.655Z,990.7
2022-12-24T17:57:12.588Z,990.7
2022-12-24T18:02:32.279Z,990.7
2022-12-24T18:07:51.098Z,990.8
2022-12-24T18:13:15.564Z,990.8
2022-12-24T18:18:30.248Z,990.8
2022-12-24T18:23:49.696Z,990.9
2022-12-24T18:29:09.322Z,990.9
2022-12-24T18:34:28.413Z,990.9
2022-12-24T18:39:48.115Z,990.7
2022-12-24T18:45:07.034Z,990.8
2022-12-24T18:50:26.276Z,990.7
2022-12-24T18:55:45.341Z,990.8
2022-12-24T19:01:05.266Z,990.7
2022-12-24T19:06:24.637Z,990.8
2022-12-24T19:11:43.938Z,990.8
2022-12-24T19:17:02.216Z,990.7
2022-12-24T19:22:21.861Z,990.7
2022-12-24T19:27:42.391Z,990.8
2022-12-24T19:33:01.840Z,990.8
2022-12-24T19:38:19.793Z,991
2022-12-24T19:43:38.634Z,991
2022-12-24T19:48:58.002Z,991.1
2022-12-24T19:54:19.260Z,991.2
2022-12-24T19:59:37.184Z,991.3
2022-12-24T20:04:56.913Z,991.4
2022-12-24T20:10:16.097Z,991.4
2022-12-24T20:15:35.368Z,991.5
2022-12-24T20:20:54.137Z,991.5
2022-12-24T20:26:13.187Z,991.5
2022-12-24T20:31:32.388Z,991.5
2022-12-24T20:36:51.224Z,991.5
2022-12-24T20:42:10.054Z,991.5
2022-12-24T20:47:28.648Z,991.6
2022-12-24T20:52:47.791Z,991.7
2022-12-24T20:58:06.577Z,991.6
2022-12-24T21:03:25.667Z,991.5
2022-12-24T21:08:45.311Z,991.5
2022-12-24T21:14:04.754Z,991.6
2022-12-24T21:19:24.721Z,991.5
2022-12-24T21:24:43.858Z,991.5
2022-12-24T21:30:02.727Z,991.5
2022-12-24T21:35:21.933Z,991.5
2022-12-24T21:40:41.665Z,991.5
2022-12-24T21:46:01.072Z,991.4
2022-12-24T21:51:45.569Z,991.5
2022-12-24T21:57:05.102Z,991.6
2022-12-24T22:02:24.198Z,991.6
2022-12-24T22:07:43.019Z,991.7
2022-12-24T22:13:01.681Z,991.7
2022-12-24T22:18:21.335Z,991.7
2022-12-24T22:23:42.657Z,991.6
2022-12-24T22:28:59.985Z,991.6
2022-12-24T22:34:19.455Z,991.4
2022-12-24T22:39:38.287Z,991.4
2022-12-24T22:44:57.823Z,991.2
2022-12-24T22:50:17.587Z,991.3
2022-12-24T22:55:36.529Z,991.3
2022-12-24T23:00:56.034Z,991.3
2022-12-24T23:06:15.103Z,991.3
2022-12-24T23:11:34.427Z,991.4
2022-12-24T23:16:53.209Z,991.4
2022-12-24T23:22:12.960Z,991.5
2022-12-24T23:27:31.807Z,991.6
2022-12-24T23:32:51.558Z,991.5
2022-12-24T23:38:10.211Z,991.5
2022-12-24T23:43:29.993Z,991.5
2022-12-24T23:48:49.644Z,991.4
2022-12-24T23:54:08.464Z,991.3
2022-12-24T23:59:27.147Z,991.3
